sensor_id;sensor_type;location;lat;lon;timestamp;pressure;altitude;pressure_sealevel;temperature;humidity
31483;BME280;18103;52.246;8.052;2024-01-30T00:02:14;101296.16;;;7.18;84.67
31483;BME280;18103;52.246;8.052;2024-01-30T00:04:39;101302.56;;;7.13;85.36
31483;BME280;18103;52.246;8.052;2024-01-30T00:07:05;101302.97;;;7.23;84.35
31483;BME280;18103;52.246;8.052;2024-01-30T00:09:30;101298.72;;;7.20;84.60
31483;BME280;18103;52.246;8.052;2024-01-30T00:11:56;101314.38;;;7.22;84.57
31483;BME280;18103;52.246;8.052;2024-01-30T00:14:24;101304.97;;;7.17;85.05
31483;BME280;18103;52.246;8.052;2024-01-30T00:16:51;101305.19;;;7.13;85.21
31483;BME280;18103;52.246;8.052;2024-01-30T00:19:16;101310.38;;;7.14;84.51
31483;BME280;18103;52.246;8.052;2024-01-30T00:21:41;101307.50;;;7.19;84.69
31483;BME280;18103;52.246;8.052;2024-01-30T00:24:07;101301.94;;;7.08;85.18
31483;BME280;18103;52.246;8.052;2024-01-30T00:26:44;101302.56;;;7.13;85.47
31483;BME280;18103;52.246;8.052;2024-01-30T00:29:09;101298.22;;;7.12;84.88
31483;BME280;18103;52.246;8.052;2024-01-30T00:31:35;101288.38;;;7.17;85.35
31483;BME280;18103;52.246;8.052;2024-01-30T00:34:06;101304.28;;;7.14;85.51
31483;BME280;18103;52.246;8.052;2024-01-30T00:36:34;101298.47;;;7.07;85.25
31483;BME280;18103;52.246;8.052;2024-01-30T00:39:00;101302.00;;;7.06;86.21
31483;BME280;18103;52.246;8.052;2024-01-30T00:41:25;101297.47;;;7.10;85.45
31483;BME280;18103;52.246;8.052;2024-01-30T00:43:54;101303.41;;;7.13;85.18
31483;BME280;18103;52.246;8.052;2024-01-30T00:46:21;101302.38;;;6.98;86.31
31483;BME280;18103;52.246;8.052;2024-01-30T00:49:04;101298.53;;;7.06;85.62
31483;BME280;18103;52.246;8.052;2024-01-30T00:51:30;101293.94;;;7.11;85.19
31483;BME280;18103;52.246;8.052;2024-01-30T00:53:58;101298.53;;;7.06;85.80
31483;BME280;18103;52.246;8.052;2024-01-30T00:56:29;101292.13;;;7.11;85.34
31483;BME280;18103;52.246;8.052;2024-01-30T00:58:56;101283.78;;;7.03;85.98
31483;BME280;18103;52.246;8.052;2024-01-30T01:01:21;101284.50;;;7.07;85.70
31483;BME280;18103;52.246;8.052;2024-01-30T01:03:46;101281.66;;;6.92;86.74
31483;BME280;18103;52.246;8.052;2024-01-30T01:06:13;101279.91;;;6.93;87.11
31483;BME280;18103;52.246;8.052;2024-01-30T01:08:41;101276.56;;;6.89;86.60
31483;BME280;18103;52.246;8.052;2024-01-30T01:11:06;101273.94;;;6.89;87.26
31483;BME280;18103;52.246;8.052;2024-01-30T01:13:31;101273.78;;;6.92;86.56
31483;BME280;18103;52.246;8.052;2024-01-30T01:15:57;101268.44;;;6.95;86.50
31483;BME280;18103;52.246;8.052;2024-01-30T01:18:25;101271.31;;;6.89;86.83
31483;BME280;18103;52.246;8.052;2024-01-30T01:20:55;101269.41;;;6.93;86.53
31483;BME280;18103;52.246;8.052;2024-01-30T01:23:35;101273.44;;;7.00;85.83
31483;BME280;18103;52.246;8.052;2024-01-30T01:26:02;101269.63;;;6.88;87.19
31483;BME280;18103;52.246;8.052;2024-01-30T01:28:28;101272.56;;;6.99;85.85
31483;BME280;18103;52.246;8.052;2024-01-30T01:30:53;101266.00;;;6.91;86.50
31483;BME280;18103;52.246;8.052;2024-01-30T01:33:26;101272.03;;;6.93;86.72
31483;BME280;18103;52.246;8.052;2024-01-30T01:35:51;101268.78;;;6.88;87.46
31483;BME280;18103;52.246;8.052;2024-01-30T01:38:17;101263.38;;;6.91;86.79
31483;BME280;18103;52.246;8.052;2024-01-30T01:40:42;101261.66;;;6.90;88.45
31483;BME280;18103;52.246;8.052;2024-01-30T01:43:09;101263.22;;;6.94;87.55
31483;BME280;18103;52.246;8.052;2024-01-30T01:45:34;101259.75;;;6.93;87.17
31483;BME280;18103;52.246;8.052;2024-01-30T01:48:02;101270.97;;;6.97;87.79
31483;BME280;18103;52.246;8.052;2024-01-30T01:50:37;101265.66;;;6.98;87.73
31483;BME280;18103;52.246;8.052;2024-01-30T01:53:03;101257.94;;;6.95;87.16
31483;BME280;18103;52.246;8.052;2024-01-30T01:55:29;101253.59;;;6.94;87.86
31483;BME280;18103;52.246;8.052;2024-01-30T01:57:55;101253.50;;;6.96;89.44
31483;BME280;18103;52.246;8.052;2024-01-30T02:00:21;101247.44;;;6.95;88.63
31483;BME280;18103;52.246;8.052;2024-01-30T02:02:47;101247.03;;;7.03;88.51
31483;BME280;18103;52.246;8.052;2024-01-30T02:05:15;101249.59;;;7.05;89.59
31483;BME280;18103;52.246;8.052;2024-01-30T02:07:41;101247.66;;;7.08;88.71
31483;BME280;18103;52.246;8.052;2024-01-30T02:10:09;101244.41;;;7.03;88.84
31483;BME280;18103;52.246;8.052;2024-01-30T02:12:42;101237.53;;;7.00;88.73
31483;BME280;18103;52.246;8.052;2024-01-30T02:15:07;101234.38;;;7.11;88.81
31483;BME280;18103;52.246;8.052;2024-01-30T02:17:35;101229.22;;;7.10;89.47
31483;BME280;18103;52.246;8.052;2024-01-30T02:20:01;101233.53;;;7.11;87.73
31483;BME280;18103;52.246;8.052;2024-01-30T02:22:29;101231.44;;;7.17;88.82
31483;BME280;18103;52.246;8.052;2024-01-30T02:24:54;101230.91;;;7.11;88.60
31483;BME280;18103;52.246;8.052;2024-01-30T02:27:20;101231.69;;;7.13;88.93
31483;BME280;18103;52.246;8.052;2024-01-30T02:29:45;101229.91;;;7.13;88.35
31483;BME280;18103;52.246;8.052;2024-01-30T02:32:11;101233.22;;;7.17;87.65
31483;BME280;18103;52.246;8.052;2024-01-30T02:34:36;101216.31;;;7.23;87.29
31483;BME280;18103;52.246;8.052;2024-01-30T02:37:04;101226.44;;;7.30;86.51
31483;BME280;18103;52.246;8.052;2024-01-30T02:39:29;101215.78;;;7.16;88.50
31483;BME280;18103;52.246;8.052;2024-01-30T02:41:55;101218.47;;;7.14;88.13
31483;BME280;18103;52.246;8.052;2024-01-30T02:44:20;101213.38;;;7.29;87.02
31483;BME280;18103;52.246;8.052;2024-01-30T02:46:45;101217.94;;;7.25;88.40
31483;BME280;18103;52.246;8.052;2024-01-30T02:49:13;101202.09;;;7.27;87.46
31483;BME280;18103;52.246;8.052;2024-01-30T02:51:38;101212.25;;;7.34;88.69
31483;BME280;18103;52.246;8.052;2024-01-30T02:54:04;101200.63;;;7.39;87.15
31483;BME280;18103;52.246;8.052;2024-01-30T02:56:34;101200.63;;;7.39;87.26
31483;BME280;18103;52.246;8.052;2024-01-30T02:59:00;101195.44;;;7.37;88.14
31483;BME280;18103;52.246;8.052;2024-01-30T03:01:34;101199.44;;;7.44;87.51
31483;BME280;18103;52.246;8.052;2024-01-30T03:04:07;101200.41;;;7.43;87.80
31483;BME280;18103;52.246;8.052;2024-01-30T03:06:34;101196.41;;;7.36;87.93
31483;BME280;18103;52.246;8.052;2024-01-30T03:08:59;101190.59;;;7.29;87.85
31483;BME280;18103;52.246;8.052;2024-01-30T03:11:25;101194.38;;;7.41;87.82
31483;BME280;18103;52.246;8.052;2024-01-30T03:13:53;101185.31;;;7.47;87.68
31483;BME280;18103;52.246;8.052;2024-01-30T03:16:18;101181.00;;;7.46;87.69
31483;BME280;18103;52.246;8.052;2024-01-30T03:18:44;101183.47;;;7.49;87.02
31483;BME280;18103;52.246;8.052;2024-01-30T03:21:11;101174.72;;;7.48;87.84
31483;BME280;18103;52.246;8.052;2024-01-30T03:23:39;101169.34;;;7.51;87.80
31483;BME280;18103;52.246;8.052;2024-01-30T03:26:18;101165.00;;;7.50;87.06
31483;BME280;18103;52.246;8.052;2024-01-30T03:28:46;101168.47;;;7.51;87.05
31483;BME280;18103;52.246;8.052;2024-01-30T03:31:14;101163.66;;;7.59;87.02
31483;BME280;18103;52.246;8.052;2024-01-30T03:33:42;101156.88;;;7.55;87.01
31483;BME280;18103;52.246;8.052;2024-01-30T03:36:08;101159.50;;;7.55;86.73
31483;BME280;18103;52.246;8.052;2024-01-30T03:38:42;101147.44;;;7.51;87.00
31483;BME280;18103;52.246;8.052;2024-01-30T03:41:08;101150.44;;;7.61;86.98
31483;BME280;18103;52.246;8.052;2024-01-30T03:43:35;101149.44;;;7.63;86.67
31483;BME280;18103;52.246;8.052;2024-01-30T03:46:01;101152.22;;;7.60;86.50
31483;BME280;18103;52.246;8.052;2024-01-30T03:48:26;101155.53;;;7.64;86.50
31483;BME280;18103;52.246;8.052;2024-01-30T03:50:52;101151.81;;;7.68;86.25
31483;BME280;18103;52.246;8.052;2024-01-30T03:53:21;101157.94;;;7.68;86.83
31483;BME280;18103;52.246;8.052;2024-01-30T03:55:51;101150.78;;;7.70;86.96
31483;BME280;18103;52.246;8.052;2024-01-30T03:58:16;101148.88;;;7.74;86.04
31483;BME280;18103;52.246;8.052;2024-01-30T04:00:44;101147.00;;;7.76;86.62
31483;BME280;18103;52.246;8.052;2024-01-30T04:03:09;101140.38;;;7.69;86.77
31483;BME280;18103;52.246;8.052;2024-01-30T04:05:41;101143.88;;;7.69;87.17
31483;BME280;18103;52.246;8.052;2024-01-30T04:08:07;101140.19;;;7.72;87.02
31483;BME280;18103;52.246;8.052;2024-01-30T04:10:38;101139.53;;;7.84;86.48
31483;BME280;18103;52.246;8.052;2024-01-30T04:13:06;101146.41;;;7.87;86.26
31483;BME280;18103;52.246;8.052;2024-01-30T04:15:37;101148.69;;;7.77;85.78
31483;BME280;18103;52.246;8.052;2024-01-30T04:18:05;101151.84;;;7.84;86.14
31483;BME280;18103;52.246;8.052;2024-01-30T04:20:30;101151.31;;;7.77;86.01
31483;BME280;18103;52.246;8.052;2024-01-30T04:22:55;101148.28;;;7.85;85.62
31483;BME280;18103;52.246;8.052;2024-01-30T04:25:23;101145.72;;;7.83;86.18
31483;BME280;18103;52.246;8.052;2024-01-30T04:27:49;101145.72;;;7.83;85.72
31483;BME280;18103;52.246;8.052;2024-01-30T04:30:17;101146.78;;;7.97;85.49
31483;BME280;18103;52.246;8.052;2024-01-30T04:32:45;101151.34;;;7.93;85.09
31483;BME280;18103;52.246;8.052;2024-01-30T04:35:12;101146.03;;;7.95;85.29
31483;BME280;18103;52.246;8.052;2024-01-30T04:37:38;101143.72;;;7.88;85.39
31483;BME280;18103;52.246;8.052;2024-01-30T04:40:04;101137.00;;;7.83;86.19
31483;BME280;18103;52.246;8.052;2024-01-30T06:07:28;101122.84;;;8.17;85.09
31483;BME280;18103;52.246;8.052;2024-01-30T06:09:53;101119.72;;;8.11;85.11
31483;BME280;18103;52.246;8.052;2024-01-30T06:12:21;101119.81;;;8.09;85.48
31483;BME280;18103;52.246;8.052;2024-01-30T06:14:46;101116.81;;;8.15;84.86
31483;BME280;18103;52.246;8.052;2024-01-30T06:17:14;101118.34;;;8.19;84.66
31483;BME280;18103;52.246;8.052;2024-01-30T06:19:40;101113.34;;;8.15;85.17
31483;BME280;18103;52.246;8.052;2024-01-30T06:22:05;101111.22;;;8.21;84.60
31483;BME280;18103;52.246;8.052;2024-01-30T06:24:31;101109.16;;;8.27;84.82
31483;BME280;18103;52.246;8.052;2024-01-30T06:26:56;101108.34;;;8.26;84.63
31483;BME280;18103;52.246;8.052;2024-01-30T06:29:24;101112.66;;;8.27;84.66
31483;BME280;18103;52.246;8.052;2024-01-30T06:31:51;101106.63;;;8.25;84.79
31483;BME280;18103;52.246;8.052;2024-01-30T06:34:21;101112.50;;;8.30;84.76
31483;BME280;18103;52.246;8.052;2024-01-30T06:36:47;101102.66;;;8.34;84.48
31483;BME280;18103;52.246;8.052;2024-01-30T06:39:12;101108.84;;;8.33;84.60
31483;BME280;18103;52.246;8.052;2024-01-30T06:41:37;101116.72;;;8.33;84.74
31483;BME280;18103;52.246;8.052;2024-01-30T06:44:03;101114.19;;;8.31;84.62
31483;BME280;18103;52.246;8.052;2024-01-30T06:46:35;101118.34;;;8.35;84.58
31483;BME280;18103;52.246;8.052;2024-01-30T06:49:01;101119.09;;;8.37;84.48
31483;BME280;18103;52.246;8.052;2024-01-30T06:51:26;101121.81;;;8.36;84.11
31483;BME280;18103;52.246;8.052;2024-01-30T06:53:54;101117.34;;;8.38;84.41
31483;BME280;18103;52.246;8.052;2024-01-30T06:56:19;101123.75;;;8.32;84.82
31483;BME280;18103;52.246;8.052;2024-01-30T06:58:49;101112.13;;;8.36;84.23
31483;BME280;18103;52.246;8.052;2024-01-30T07:01:15;101117.66;;;8.32;84.50
31483;BME280;18103;52.246;8.052;2024-01-30T07:03:41;101118.50;;;8.32;84.51
31483;BME280;18103;52.246;8.052;2024-01-30T07:06:07;101114.94;;;8.33;84.65
31483;BME280;18103;52.246;8.052;2024-01-30T07:08:32;101114.84;;;8.35;84.60
31483;BME280;18103;52.246;8.052;2024-01-30T07:10:58;101118.25;;;8.37;84.35
31483;BME280;18103;52.246;8.052;2024-01-30T07:13:23;101121.41;;;8.44;84.09
31483;BME280;18103;52.246;8.052;2024-01-30T07:15:48;101126.16;;;8.37;84.13
31483;BME280;18103;52.246;8.052;2024-01-30T07:18:16;101120.53;;;8.43;84.32
31483;BME280;18103;52.246;8.052;2024-01-30T07:20:44;101119.97;;;8.38;84.23
31483;BME280;18103;52.246;8.052;2024-01-30T07:23:13;101119.88;;;8.39;84.16
31483;BME280;18103;52.246;8.052;2024-01-30T07:25:41;101119.88;;;8.39;84.42
31483;BME280;18103;52.246;8.052;2024-01-30T07:28:07;101114.00;;;8.34;84.96
31483;BME280;18103;52.246;8.052;2024-01-30T07:30:38;101110.81;;;8.45;84.29
31483;BME280;18103;52.246;8.052;2024-01-30T07:33:04;101113.16;;;8.50;84.19
31483;BME280;18103;52.246;8.052;2024-01-30T07:35:29;101109.16;;;8.43;84.41
31483;BME280;18103;52.246;8.052;2024-01-30T07:37:57;101105.28;;;8.50;84.40
31483;BME280;18103;52.246;8.052;2024-01-30T07:40:22;101110.34;;;8.53;83.91
31483;BME280;18103;52.246;8.052;2024-01-30T07:42:48;101109.69;;;8.49;84.28
31483;BME280;18103;52.246;8.052;2024-01-30T07:45:14;101106.13;;;8.50;84.09
31483;BME280;18103;52.246;8.052;2024-01-30T07:47:39;101113.59;;;8.58;83.88
31483;BME280;18103;52.246;8.052;2024-01-30T07:50:05;101119.69;;;8.59;84.15
31483;BME280;18103;52.246;8.052;2024-01-30T07:52:31;101111.53;;;8.63;83.89
31483;BME280;18103;52.246;8.052;2024-01-30T07:54:56;101115.59;;;8.69;83.74
31483;BME280;18103;52.246;8.052;2024-01-30T07:57:24;101113.41;;;8.61;84.09
31483;BME280;18103;52.246;8.052;2024-01-30T07:59:50;101126.78;;;8.72;83.89
31483;BME280;18103;52.246;8.052;2024-01-30T08:02:15;101123.31;;;8.72;83.57
31483;BME280;18103;52.246;8.052;2024-01-30T08:04:41;101126.44;;;8.79;83.50
31483;BME280;18103;52.246;8.052;2024-01-30T08:07:06;101124.28;;;8.85;83.14
31483;BME280;18103;52.246;8.052;2024-01-30T08:09:32;101131.69;;;8.79;83.50
31483;BME280;18103;52.246;8.052;2024-01-30T08:11:57;101133.22;;;8.83;83.38
31483;BME280;18103;52.246;8.052;2024-01-30T08:14:23;101130.84;;;8.78;83.37
31483;BME280;18103;52.246;8.052;2024-01-30T08:16:48;101141.03;;;8.84;83.14
31483;BME280;18103;52.246;8.052;2024-01-30T08:19:17;101142.03;;;8.82;83.21
31483;BME280;18103;52.246;8.052;2024-01-30T08:21:42;101140.84;;;8.87;83.05
31483;BME280;18103;52.246;8.052;2024-01-30T08:24:08;101139.81;;;8.90;83.20
31483;BME280;18103;52.246;8.052;2024-01-30T08:26:34;101139.91;;;8.88;83.16
31483;BME280;18103;52.246;8.052;2024-01-30T08:29:01;101146.41;;;8.97;82.68
31483;BME280;18103;52.246;8.052;2024-01-30T08:31:26;101147.63;;;8.92;83.00
31483;BME280;18103;52.246;8.052;2024-01-30T08:33:54;101145.91;;;8.90;83.05
31483;BME280;18103;52.246;8.052;2024-01-30T08:36:19;101137.19;;;8.90;82.88
31483;BME280;18103;52.246;8.052;2024-01-30T08:38:47;101143.69;;;8.99;82.78
31483;BME280;18103;52.246;8.052;2024-01-30T08:41:13;101140.03;;;9.01;82.73
31483;BME280;18103;52.246;8.052;2024-01-30T08:43:38;101142.66;;;9.01;82.55
31483;BME280;18103;52.246;8.052;2024-01-30T08:46:03;101141.34;;;9.08;82.40
31483;BME280;18103;52.246;8.052;2024-01-30T08:48:29;101145.94;;;9.05;82.96
31483;BME280;18103;52.246;8.052;2024-01-30T08:50:57;101154.03;;;9.02;82.96
31483;BME280;18103;52.246;8.052;2024-01-30T08:53:22;101144.72;;;9.11;82.61
31483;BME280;18103;52.246;8.052;2024-01-30T08:55:48;101146.09;;;9.18;82.60
31483;BME280;18103;52.246;8.052;2024-01-30T08:58:13;101148.97;;;9.13;82.68
31483;BME280;18103;52.246;8.052;2024-01-30T09:00:41;101149.28;;;9.23;82.22
31483;BME280;18103;52.246;8.052;2024-01-30T09:03:06;101144.19;;;9.34;81.74
31483;BME280;18103;52.246;8.052;2024-01-30T09:05:32;101146.38;;;9.28;82.07
31483;BME280;18103;52.246;8.052;2024-01-30T09:07:57;101145.06;;;9.35;81.96
31483;BME280;18103;52.246;8.052;2024-01-30T09:10:22;101137.81;;;9.24;82.27
31483;BME280;18103;52.246;8.052;2024-01-30T09:12:48;101152.97;;;9.35;82.01
31483;BME280;18103;52.246;8.052;2024-01-30T09:15:14;101148.06;;;9.29;82.29
31483;BME280;18103;52.246;8.052;2024-01-30T09:17:39;101145.72;;;9.38;82.11
31483;BME280;18103;52.246;8.052;2024-01-30T09:20:05;101144.59;;;9.28;82.52
31483;BME280;18103;52.246;8.052;2024-01-30T09:22:37;101145.25;;;9.32;82.41
31483;BME280;18103;52.246;8.052;2024-01-30T09:25:02;101148.00;;;9.45;81.99
31483;BME280;18103;52.246;8.052;2024-01-30T09:27:28;101155.41;;;9.38;82.29
31483;BME280;18103;52.246;8.052;2024-01-30T09:29:53;101150.81;;;9.41;82.03
31483;BME280;18103;52.246;8.052;2024-01-30T09:32:21;101147.69;;;9.35;82.48
31483;BME280;18103;52.246;8.052;2024-01-30T09:34:46;101148.94;;;9.44;81.93
31483;BME280;18103;52.246;8.052;2024-01-30T09:37:11;101148.53;;;9.50;81.83
31483;BME280;18103;52.246;8.052;2024-01-30T09:39:40;101153.25;;;9.45;82.39
31483;BME280;18103;52.246;8.052;2024-01-30T09:42:17;101148.63;;;9.48;82.44
31483;BME280;18103;52.246;8.052;2024-01-30T09:44:46;101147.59;;;9.51;82.26
31483;BME280;18103;52.246;8.052;2024-01-30T09:47:12;101143.47;;;9.47;82.30
31483;BME280;18103;52.246;8.052;2024-01-30T09:49:38;101155.59;;;9.64;82.02
31483;BME280;18103;52.246;8.052;2024-01-30T09:52:06;101151.28;;;9.48;82.54
31483;BME280;18103;52.246;8.052;2024-01-30T09:54:35;101155.31;;;9.54;82.31
31483;BME280;18103;52.246;8.052;2024-01-30T09:57:01;101150.63;;;9.59;82.04
31483;BME280;18103;52.246;8.052;2024-01-30T09:59:26;101140.19;;;9.57;82.45
31483;BME280;18103;52.246;8.052;2024-01-30T10:01:52;101147.88;;;9.61;81.46
31483;BME280;18103;52.246;8.052;2024-01-30T10:04:17;101145.72;;;9.67;81.94
31483;BME280;18103;52.246;8.052;2024-01-30T10:06:43;101152.97;;;9.64;82.27
31483;BME280;18103;52.246;8.052;2024-01-30T10:09:11;101140.06;;;9.73;81.95
31483;BME280;18103;52.246;8.052;2024-01-30T10:11:36;101142.44;;;9.78;81.94
31483;BME280;18103;52.246;8.052;2024-01-30T10:14:02;101133.47;;;9.81;81.74
31483;BME280;18103;52.246;8.052;2024-01-30T10:16:27;101145.25;;;9.89;81.73
31483;BME280;18103;52.246;8.052;2024-01-30T10:18:53;101144.56;;;9.86;81.85
31483;BME280;18103;52.246;8.052;2024-01-30T10:21:18;101142.50;;;9.91;82.17
31483;BME280;18103;52.246;8.052;2024-01-30T10:23:44;101145.34;;;9.88;82.12
31483;BME280;18103;52.246;8.052;2024-01-30T10:26:12;101152.38;;;9.87;82.64
31483;BME280;18103;52.246;8.052;2024-01-30T10:28:38;101146.84;;;9.92;82.30
31483;BME280;18103;52.246;8.052;2024-01-30T10:31:03;101142.41;;;9.92;82.08
31483;BME280;18103;52.246;8.052;2024-01-30T10:33:32;101149.75;;;9.87;82.28
31483;BME280;18103;52.246;8.052;2024-01-30T10:36:02;101149.66;;;9.89;81.69
31483;BME280;18103;52.246;8.052;2024-01-30T10:38:32;101143.84;;;9.84;82.14
31483;BME280;18103;52.246;8.052;2024-01-30T10:40:59;101142.03;;;9.84;82.28
31483;BME280;18103;52.246;8.052;2024-01-30T10:43:35;101141.00;;;9.87;82.01
31483;BME280;18103;52.246;8.052;2024-01-30T10:46:21;101132.91;;;9.90;82.30
31483;BME280;18103;52.246;8.052;2024-01-30T10:48:57;101140.44;;;9.82;82.28
31483;BME280;18103;52.246;8.052;2024-01-30T10:51:25;101124.16;;;9.89;82.45
31483;BME280;18103;52.246;8.052;2024-01-30T10:53:52;101130.34;;;9.88;82.15
31483;BME280;18103;52.246;8.052;2024-01-30T10:56:23;101140.81;;;9.90;82.11
31483;BME280;18103;52.246;8.052;2024-01-30T10:58:50;101137.59;;;9.85;82.43
31483;BME280;18103;52.246;8.052;2024-01-30T11:01:19;101134.03;;;9.86;82.42
31483;BME280;18103;52.246;8.052;2024-01-30T11:03:45;101138.06;;;9.91;82.35
31483;BME280;18103;52.246;8.052;2024-01-30T11:06:14;101136.97;;;9.81;82.47
31483;BME280;18103;52.246;8.052;2024-01-30T11:08:46;101135.53;;;9.90;82.64
31483;BME280;18103;52.246;8.052;2024-01-30T11:11:12;101145.34;;;9.88;82.49
31483;BME280;18103;52.246;8.052;2024-01-30T11:13:37;101147.22;;;9.86;82.78
31483;BME280;18103;52.246;8.052;2024-01-30T11:16:06;101145.81;;;9.80;82.73
31483;BME280;18103;52.246;8.052;2024-01-30T11:18:32;101146.75;;;9.79;82.53
31483;BME280;18103;52.246;8.052;2024-01-30T11:20:59;101145.91;;;9.79;82.89
31483;BME280;18103;52.246;8.052;2024-01-30T11:23:27;101138.47;;;9.85;82.65
31483;BME280;18103;52.246;8.052;2024-01-30T11:25:56;101142.22;;;9.96;81.96
31483;BME280;18103;52.246;8.052;2024-01-30T11:28:22;101150.03;;;9.83;82.92
31483;BME280;18103;52.246;8.052;2024-01-30T11:30:50;101146.75;;;9.93;82.38
31483;BME280;18103;52.246;8.052;2024-01-30T11:33:28;101148.41;;;9.94;82.60
31483;BME280;18103;52.246;8.052;2024-01-30T11:35:58;101145.88;;;9.93;82.78
31483;BME280;18103;52.246;8.052;2024-01-30T11:38:27;101147.28;;;9.99;82.67
31483;BME280;18103;52.246;8.052;2024-01-30T11:40:56;101148.34;;;9.96;82.55
31483;BME280;18103;52.246;8.052;2024-01-30T11:43:22;101142.00;;;9.99;82.64
31483;BME280;18103;52.246;8.052;2024-01-30T11:45:48;101136.00;;;9.97;83.19
31483;BME280;18103;52.246;8.052;2024-01-30T11:48:16;101143.03;;;10.10;83.13
31483;BME280;18103;52.246;8.052;2024-01-30T11:50:42;101147.97;;;10.30;82.49
31483;BME280;18103;52.246;8.052;2024-01-30T11:53:10;101154.09;;;10.30;82.30
31483;BME280;18103;52.246;8.052;2024-01-30T11:55:35;101143.41;;;10.46;81.93
31483;BME280;18103;52.246;8.052;2024-01-30T11:58:03;101135.25;;;10.36;82.58
31483;BME280;18103;52.246;8.052;2024-01-30T12:00:31;101142.59;;;10.46;82.89
31483;BME280;18103;52.246;8.052;2024-01-30T12:02:58;101144.91;;;10.50;82.48
31483;BME280;18103;52.246;8.052;2024-01-30T12:05:26;101143.66;;;10.56;82.61
31483;BME280;18103;52.246;8.052;2024-01-30T12:07:54;101147.28;;;10.55;83.02
31483;BME280;18103;52.246;8.052;2024-01-30T12:10:19;101139.03;;;10.59;82.38
31483;BME280;18103;52.246;8.052;2024-01-30T12:12:46;101143.47;;;10.59;82.97
31483;BME280;18103;52.246;8.052;2024-01-30T12:15:13;101142.66;;;10.71;82.57
31483;BME280;18103;52.246;8.052;2024-01-30T12:17:39;101138.84;;;10.63;82.45
31483;BME280;18103;52.246;8.052;2024-01-30T12:25:07;101140.25;;;10.81;82.63
31483;BME280;18103;52.246;8.052;2024-01-30T12:27:34;101142.44;;;10.74;82.69
31483;BME280;18103;52.246;8.052;2024-01-30T12:30:05;101146.28;;;10.83;82.32
31483;BME280;18103;52.246;8.052;2024-01-30T12:32:31;101145.44;;;10.83;83.26
31483;BME280;18103;52.246;8.052;2024-01-30T12:34:59;101155.25;;;10.81;82.56
31483;BME280;18103;52.246;8.052;2024-01-30T12:37:27;101153.16;;;10.86;82.72
31483;BME280;18103;52.246;8.052;2024-01-30T12:39:52;101156.63;;;10.73;82.65
31483;BME280;18103;52.246;8.052;2024-01-30T12:42:21;101151.13;;;10.76;82.67
31483;BME280;18103;52.246;8.052;2024-01-30T12:44:48;101148.38;;;10.78;82.55
31483;BME280;18103;52.246;8.052;2024-01-30T12:47:14;101147.56;;;10.90;82.26
31483;BME280;18103;52.246;8.052;2024-01-30T12:49:43;101138.97;;;10.74;83.13
31483;BME280;18103;52.246;8.052;2024-01-30T12:52:15;101141.28;;;10.78;82.24
31483;BME280;18103;52.246;8.052;2024-01-30T12:54:43;101141.50;;;10.75;82.96
31483;BME280;18103;52.246;8.052;2024-01-30T12:57:11;101141.47;;;11.03;82.01
31483;BME280;18103;52.246;8.052;2024-01-30T12:59:37;101135.50;;;10.73;82.96
31483;BME280;18103;52.246;8.052;2024-01-30T13:02:03;101140.47;;;10.78;83.18
31483;BME280;18103;52.246;8.052;2024-01-30T13:04:29;101129.91;;;10.78;83.17
31483;BME280;18103;52.246;8.052;2024-01-30T13:06:55;101135.50;;;10.73;83.64
31483;BME280;18103;52.246;8.052;2024-01-30T13:09:20;101136.47;;;10.85;83.00
31483;BME280;18103;52.246;8.052;2024-01-30T13:11:49;101136.22;;;10.75;83.71
31483;BME280;18103;52.246;8.052;2024-01-30T13:14:19;101143.88;;;10.80;83.28
31483;BME280;18103;52.246;8.052;2024-01-30T13:16:45;101145.75;;;10.78;83.91
31483;BME280;18103;52.246;8.052;2024-01-30T13:19:10;101140.56;;;10.76;84.21
31483;BME280;18103;52.246;8.052;2024-01-30T13:21:38;101142.88;;;10.68;84.74
31483;BME280;18103;52.246;8.052;2024-01-30T13:24:04;101147.97;;;10.84;84.18
31483;BME280;18103;52.246;8.052;2024-01-30T13:26:32;101134.34;;;10.77;84.40
31483;BME280;18103;52.246;8.052;2024-01-30T13:29:00;101143.88;;;10.80;84.51
31483;BME280;18103;52.246;8.052;2024-01-30T13:31:29;101148.25;;;10.67;85.65
31483;BME280;18103;52.246;8.052;2024-01-30T13:33:57;101147.41;;;10.66;85.83
31483;BME280;18103;52.246;8.052;2024-01-30T13:36:23;101154.47;;;10.66;86.09
31483;BME280;18103;52.246;8.052;2024-01-30T13:38:51;101160.63;;;10.66;86.14
31483;BME280;18103;52.246;8.052;2024-01-30T13:41:16;101156.16;;;10.67;86.16
31483;BME280;18103;52.246;8.052;2024-01-30T13:43:45;101155.41;;;10.65;86.76
31483;BME280;18103;52.246;8.052;2024-01-30T13:46:10;101145.72;;;10.65;86.56
31483;BME280;18103;52.246;8.052;2024-01-30T13:48:36;101155.97;;;10.70;86.49
31483;BME280;18103;52.246;8.052;2024-01-30T13:51:03;101155.03;;;10.71;86.79
31483;BME280;18103;52.246;8.052;2024-01-30T13:53:29;101158.06;;;10.65;86.84
31483;BME280;18103;52.246;8.052;2024-01-30T13:55:57;101150.13;;;10.65;86.73
31483;BME280;18103;52.246;8.052;2024-01-30T13:58:26;101149.84;;;10.69;86.50
31483;BME280;18103;52.246;8.052;2024-01-30T14:00:53;101145.59;;;10.67;86.44
31483;BME280;18103;52.246;8.052;2024-01-30T14:03:21;101153.31;;;10.70;86.17
31483;BME280;18103;52.246;8.052;2024-01-30T14:05:49;101146.53;;;10.66;86.29
31483;BME280;18103;52.246;8.052;2024-01-30T14:08:15;101140.34;;;10.67;86.15
31483;BME280;18103;52.246;8.052;2024-01-30T14:10:43;101148.66;;;10.60;86.34
31483;BME280;18103;52.246;8.052;2024-01-30T14:13:11;101146.16;;;10.72;86.13
31483;BME280;18103;52.246;8.052;2024-01-30T14:15:39;101146.53;;;10.66;85.89
31483;BME280;18103;52.246;8.052;2024-01-30T14:18:05;101148.38;;;10.78;85.74
31483;BME280;18103;52.246;8.052;2024-01-30T14:20:33;101156.81;;;10.70;85.92
31483;BME280;18103;52.246;8.052;2024-01-30T14:23:01;101154.44;;;10.80;85.31
31483;BME280;18103;52.246;8.052;2024-01-30T14:25:31;101154.19;;;10.70;85.72
31483;BME280;18103;52.246;8.052;2024-01-30T14:27:56;101153.84;;;10.62;85.98